メインページ
METAR-TAF:

METAR-TAF

空港 :

アール・マクトゥーム国際空港

ドバイ, アラブ首長国連邦

緯度: 24-53-49N, 経度: 55-09-40E, 海抜: 35m

現時点の気象観測

当レポートは57分前の20:00(UTC)に作成
変向風 2kt
気温 32°C
湿度 36%
気圧 996 hPa
視程: 7000m

METAR: OMDW 212000Z VRB02KT 7000 NSC 32/15 Q0996 NOSIG

時間: 00:57 (20:57 UTC)

予報

当レポートは4時間0分前の16:57(UTC)に作成
予報は21日の 18時(UTC)から 23日の 00時(UTC)まで有効
の風 5kt
視程: 7000m
確率 30%
22日の 02時(UTC)から 22日の 05時(UTC)まで
視程: 3000m
広範な塵
22日の 03時(UTC)から 22日の 05時(UTC)まで徐々に
の風 10kt
22日の 08時(UTC)から 22日の 10時(UTC)まで徐々に
北/北西の風 15kt
確率 30%
22日の 09時(UTC)から 22日の 15時(UTC)まで
視程: 4000m
広範な塵
22日の 16時(UTC)から 22日の 18時(UTC)まで徐々に
東/北東の風 5kt

TAF: OMDW 211657Z 2118/2300 08005KT 7000 NSC PROB30 2202/2205 3000 DU BECMG 2203/2205 18010KT BECMG 2208/2210 33015KT PROB30 2209/2215 4000 DU BECMG 2216/2218 06005KT

4,000以上の空港の気象観測と天気予報(METAR報とTAF報)

利用可能な観測所は地図上に黄色い丸と赤い丸で示す。

丸の上にカーソルを重ねると観測所名を参照できる。

次にクリックすると気象観測と天気予報を参照できる。

マップの切り替え:黒色「×」印の緑ボタンをクリックして拡大、「-」印の緑ボタンをクリックして縮小、緑色の三角印をクリックして隣りの地図に切り替え


METAR-TAF: